sensor_id;sensor_type;location;lat;lon;timestamp;temperature;humidity
35541;DHT22;21650;48.840;9.162;2023-03-04T00:01:44;2.00;99.90
35541;DHT22;21650;48.840;9.162;2023-03-04T00:04:10;2.10;99.90
35541;DHT22;21650;48.840;9.162;2023-03-04T00:06:36;2.10;99.90
35541;DHT22;21650;48.840;9.162;2023-03-04T00:09:02;2.00;99.90
35541;DHT22;21650;48.840;9.162;2023-03-04T00:11:29;1.90;99.90
35541;DHT22;21650;48.840;9.162;2023-03-04T00:13:55;1.80;99.90
35541;DHT22;21650;48.840;9.162;2023-03-04T00:16:21;1.80;99.90
35541;DHT22;21650;48.840;9.162;2023-03-04T00:18:47;1.70;99.90
35541;DHT22;21650;48.840;9.162;2023-03-04T00:21:12;1.60;99.90
35541;DHT22;21650;48.840;9.162;2023-03-04T00:23:38;1.70;99.90
35541;DHT22;21650;48.840;9.162;2023-03-04T00:26:05;1.70;99.90
35541;DHT22;21650;48.840;9.162;2023-03-04T00:28:32;1.70;99.90
35541;DHT22;21650;48.840;9.162;2023-03-04T00:30:58;1.70;99.90
35541;DHT22;21650;48.840;9.162;2023-03-04T00:33:23;1.70;99.90
35541;DHT22;21650;48.840;9.162;2023-03-04T00:35:49;1.70;99.90
35541;DHT22;21650;48.840;9.162;2023-03-04T00:38:15;1.70;99.90
35541;DHT22;21650;48.840;9.162;2023-03-04T00:40:40;1.70;99.90
35541;DHT22;21650;48.840;9.162;2023-03-04T00:43:06;1.70;99.90
35541;DHT22;21650;48.840;9.162;2023-03-04T00:45:31;1.60;99.90
35541;DHT22;21650;48.840;9.162;2023-03-04T00:47:57;1.60;99.90
35541;DHT22;21650;48.840;9.162;2023-03-04T00:50:22;1.50;99.90
35541;DHT22;21650;48.840;9.162;2023-03-04T00:52:48;1.50;99.90
35541;DHT22;21650;48.840;9.162;2023-03-04T00:55:14;1.50;99.90
35541;DHT22;21650;48.840;9.162;2023-03-04T00:57:39;1.50;99.90
35541;DHT22;21650;48.840;9.162;2023-03-04T01:00:05;1.40;99.90
35541;DHT22;21650;48.840;9.162;2023-03-04T01:02:31;1.40;99.90
35541;DHT22;21650;48.840;9.162;2023-03-04T01:04:56;1.40;99.90
35541;DHT22;21650;48.840;9.162;2023-03-04T01:07:22;1.40;99.90
35541;DHT22;21650;48.840;9.162;2023-03-04T01:09:48;1.40;99.90
35541;DHT22;21650;48.840;9.162;2023-03-04T01:12:13;1.30;99.90
35541;DHT22;21650;48.840;9.162;2023-03-04T01:14:39;1.40;99.90
35541;DHT22;21650;48.840;9.162;2023-03-04T01:17:04;1.40;99.90
35541;DHT22;21650;48.840;9.162;2023-03-04T01:19:30;1.30;99.90
35541;DHT22;21650;48.840;9.162;2023-03-04T01:21:56;1.30;99.90
35541;DHT22;21650;48.840;9.162;2023-03-04T01:24:21;1.30;99.90
35541;DHT22;21650;48.840;9.162;2023-03-04T01:26:47;1.30;99.90
35541;DHT22;21650;48.840;9.162;2023-03-04T01:29:12;1.20;99.90
35541;DHT22;21650;48.840;9.162;2023-03-04T01:31:38;1.20;99.90
35541;DHT22;21650;48.840;9.162;2023-03-04T01:34:03;1.20;99.90
35541;DHT22;21650;48.840;9.162;2023-03-04T01:36:29;1.20;99.90
35541;DHT22;21650;48.840;9.162;2023-03-04T01:38:55;1.20;99.90
35541;DHT22;21650;48.840;9.162;2023-03-04T01:41:24;1.20;99.90
35541;DHT22;21650;48.840;9.162;2023-03-04T01:43:50;1.20;99.90
35541;DHT22;21650;48.840;9.162;2023-03-04T01:46:15;1.10;99.90
35541;DHT22;21650;48.840;9.162;2023-03-04T01:48:42;1.00;99.90
35541;DHT22;21650;48.840;9.162;2023-03-04T01:51:16;1.00;99.90
35541;DHT22;21650;48.840;9.162;2023-03-04T01:53:42;0.90;99.90
35541;DHT22;21650;48.840;9.162;2023-03-04T01:58:39;0.90;99.90
35541;DHT22;21650;48.840;9.162;2023-03-04T02:01:05;0.90;99.90
35541;DHT22;21650;48.840;9.162;2023-03-04T02:03:30;0.80;99.90
35541;DHT22;21650;48.840;9.162;2023-03-04T02:05:56;0.80;99.90
35541;DHT22;21650;48.840;9.162;2023-03-04T02:08:23;0.90;99.90
35541;DHT22;21650;48.840;9.162;2023-03-04T02:10:50;0.80;99.90
35541;DHT22;21650;48.840;9.162;2023-03-04T02:13:16;0.90;99.90
35541;DHT22;21650;48.840;9.162;2023-03-04T02:15:44;0.80;99.90
35541;DHT22;21650;48.840;9.162;2023-03-04T02:18:19;0.80;99.90
35541;DHT22;21650;48.840;9.162;2023-03-04T02:23:44;0.80;99.90
35541;DHT22;21650;48.840;9.162;2023-03-04T02:26:28;0.70;99.90
35541;DHT22;21650;48.840;9.162;2023-03-04T02:28:55;0.70;99.90
35541;DHT22;21650;48.840;9.162;2023-03-04T02:31:26;0.70;99.90
35541;DHT22;21650;48.840;9.162;2023-03-04T02:33:56;0.70;99.90
35541;DHT22;21650;48.840;9.162;2023-03-04T02:36:22;0.70;99.90
35541;DHT22;21650;48.840;9.162;2023-03-04T02:38:50;0.60;99.90
35541;DHT22;21650;48.840;9.162;2023-03-04T02:41:19;0.60;99.90
35541;DHT22;21650;48.840;9.162;2023-03-04T02:43:48;0.60;99.90
35541;DHT22;21650;48.840;9.162;2023-03-04T02:46:14;0.50;99.90
35541;DHT22;21650;48.840;9.162;2023-03-04T02:48:40;0.50;99.90
35541;DHT22;21650;48.840;9.162;2023-03-04T02:51:05;0.50;99.90
35541;DHT22;21650;48.840;9.162;2023-03-04T02:53:31;0.40;99.90
35541;DHT22;21650;48.840;9.162;2023-03-04T02:55:56;0.50;99.90
35541;DHT22;21650;48.840;9.162;2023-03-04T02:58:22;0.40;99.90
35541;DHT22;21650;48.840;9.162;2023-03-04T03:00:47;0.40;99.90
35541;DHT22;21650;48.840;9.162;2023-03-04T03:03:13;0.40;99.90
35541;DHT22;21650;48.840;9.162;2023-03-04T03:05:39;0.40;99.90
35541;DHT22;21650;48.840;9.162;2023-03-04T03:08:05;0.40;99.90
35541;DHT22;21650;48.840;9.162;2023-03-04T03:10:31;0.30;99.90
35541;DHT22;21650;48.840;9.162;2023-03-04T03:12:57;0.30;99.90
35541;DHT22;21650;48.840;9.162;2023-03-04T03:15:22;0.30;99.90
35541;DHT22;21650;48.840;9.162;2023-03-04T03:17:48;0.30;99.90
35541;DHT22;21650;48.840;9.162;2023-03-04T03:20:14;0.30;99.90
35541;DHT22;21650;48.840;9.162;2023-03-04T03:22:41;0.40;99.90
35541;DHT22;21650;48.840;9.162;2023-03-04T03:25:07;0.40;99.90
35541;DHT22;21650;48.840;9.162;2023-03-04T03:27:33;0.30;99.90
35541;DHT22;21650;48.840;9.162;2023-03-04T03:29:59;0.30;99.90
35541;DHT22;21650;48.840;9.162;2023-03-04T03:32:24;0.30;99.90
35541;DHT22;21650;48.840;9.162;2023-03-04T03:34:50;0.30;99.90
35541;DHT22;21650;48.840;9.162;2023-03-04T03:37:16;0.30;99.90
35541;DHT22;21650;48.840;9.162;2023-03-04T03:39:41;0.30;99.90
35541;DHT22;21650;48.840;9.162;2023-03-04T03:42:07;0.30;99.90
35541;DHT22;21650;48.840;9.162;2023-03-04T03:44:33;0.30;99.90
35541;DHT22;21650;48.840;9.162;2023-03-04T03:46:58;0.30;99.90
35541;DHT22;21650;48.840;9.162;2023-03-04T03:49:24;0.30;99.90
35541;DHT22;21650;48.840;9.162;2023-03-04T03:51:49;0.30;99.90
35541;DHT22;21650;48.840;9.162;2023-03-04T03:54:15;0.30;99.90
35541;DHT22;21650;48.840;9.162;2023-03-04T03:56:41;0.30;99.90
35541;DHT22;21650;48.840;9.162;2023-03-04T03:59:06;0.30;99.90
35541;DHT22;21650;48.840;9.162;2023-03-04T04:01:32;0.20;99.90
35541;DHT22;21650;48.840;9.162;2023-03-04T04:03:58;0.20;99.90
35541;DHT22;21650;48.840;9.162;2023-03-04T04:06:24;0.20;99.90
35541;DHT22;21650;48.840;9.162;2023-03-04T04:08:50;0.20;99.90
35541;DHT22;21650;48.840;9.162;2023-03-04T04:11:16;0.20;99.90
35541;DHT22;21650;48.840;9.162;2023-03-04T04:13:42;0.20;99.90
35541;DHT22;21650;48.840;9.162;2023-03-04T04:16:09;0.20;99.90
35541;DHT22;21650;48.840;9.162;2023-03-04T04:18:35;0.20;99.90
35541;DHT22;21650;48.840;9.162;2023-03-04T04:21:01;0.20;99.90
35541;DHT22;21650;48.840;9.162;2023-03-04T04:23:26;0.20;99.90
35541;DHT22;21650;48.840;9.162;2023-03-04T04:25:54;0.20;99.90
35541;DHT22;21650;48.840;9.162;2023-03-04T04:28:20;0.00;99.90
35541;DHT22;21650;48.840;9.162;2023-03-04T04:30:46;0.00;99.90
35541;DHT22;21650;48.840;9.162;2023-03-04T04:33:11;0.00;99.90
35541;DHT22;21650;48.840;9.162;2023-03-04T04:35:37;0.00;99.90
35541;DHT22;21650;48.840;9.162;2023-03-04T04:38:04;0.00;99.90
35541;DHT22;21650;48.840;9.162;2023-03-04T04:40:29;-0.10;99.90
35541;DHT22;21650;48.840;9.162;2023-03-04T04:42:55;-0.10;99.90
35541;DHT22;21650;48.840;9.162;2023-03-04T04:45:22;-0.20;99.90
35541;DHT22;21650;48.840;9.162;2023-03-04T04:47:52;-0.20;99.90
35541;DHT22;21650;48.840;9.162;2023-03-04T04:50:18;-0.20;99.90
35541;DHT22;21650;48.840;9.162;2023-03-04T04:52:44;-0.20;99.90
35541;DHT22;21650;48.840;9.162;2023-03-04T04:55:10;-0.20;99.90
35541;DHT22;21650;48.840;9.162;2023-03-04T04:57:36;-0.30;99.90
35541;DHT22;21650;48.840;9.162;2023-03-04T05:00:03;-0.30;99.90
35541;DHT22;21650;48.840;9.162;2023-03-04T05:02:29;-0.30;99.90
35541;DHT22;21650;48.840;9.162;2023-03-04T05:04:55;-0.40;99.90
35541;DHT22;21650;48.840;9.162;2023-03-04T05:07:21;-0.40;99.90
35541;DHT22;21650;48.840;9.162;2023-03-04T05:09:47;-0.40;99.90
35541;DHT22;21650;48.840;9.162;2023-03-04T05:12:12;-0.40;99.90
35541;DHT22;21650;48.840;9.162;2023-03-04T05:14:38;-0.50;99.90
35541;DHT22;21650;48.840;9.162;2023-03-04T05:17:03;-0.40;99.90
35541;DHT22;21650;48.840;9.162;2023-03-04T05:19:29;-0.40;99.90
35541;DHT22;21650;48.840;9.162;2023-03-04T05:21:55;-0.40;99.90
35541;DHT22;21650;48.840;9.162;2023-03-04T05:24:20;-0.50;99.90
35541;DHT22;21650;48.840;9.162;2023-03-04T05:26:46;-0.50;99.90
35541;DHT22;21650;48.840;9.162;2023-03-04T05:29:12;-0.50;99.90
35541;DHT22;21650;48.840;9.162;2023-03-04T05:31:38;-0.50;99.90
35541;DHT22;21650;48.840;9.162;2023-03-04T05:34:03;-0.40;99.90
35541;DHT22;21650;48.840;9.162;2023-03-04T05:36:29;-0.50;99.90
35541;DHT22;21650;48.840;9.162;2023-03-04T05:38:54;-0.50;99.90
35541;DHT22;21650;48.840;9.162;2023-03-04T05:41:20;-0.60;99.90
35541;DHT22;21650;48.840;9.162;2023-03-04T05:43:47;-0.60;99.90
35541;DHT22;21650;48.840;9.162;2023-03-04T05:46:15;-0.60;99.90
35541;DHT22;21650;48.840;9.162;2023-03-04T05:48:42;-0.50;99.90
35541;DHT22;21650;48.840;9.162;2023-03-04T05:51:07;-0.60;99.90
35541;DHT22;21650;48.840;9.162;2023-03-04T05:53:34;-0.60;99.90
35541;DHT22;21650;48.840;9.162;2023-03-04T05:56:10;-0.60;99.90
35541;DHT22;21650;48.840;9.162;2023-03-04T05:58:36;-0.60;99.90
35541;DHT22;21650;48.840;9.162;2023-03-04T06:01:02;-0.60;99.90
35541;DHT22;21650;48.840;9.162;2023-03-04T06:03:28;-0.60;99.90
35541;DHT22;21650;48.840;9.162;2023-03-04T06:05:54;-0.60;99.90
35541;DHT22;21650;48.840;9.162;2023-03-04T06:08:20;-0.60;99.90
35541;DHT22;21650;48.840;9.162;2023-03-04T06:10:46;-0.60;99.90
35541;DHT22;21650;48.840;9.162;2023-03-04T06:13:12;-0.50;99.90
35541;DHT22;21650;48.840;9.162;2023-03-04T06:15:38;-0.60;99.90
35541;DHT22;21650;48.840;9.162;2023-03-04T06:18:05;-0.70;99.90
35541;DHT22;21650;48.840;9.162;2023-03-04T06:20:31;-0.80;99.90
35541;DHT22;21650;48.840;9.162;2023-03-04T06:22:57;-0.70;99.90
35541;DHT22;21650;48.840;9.162;2023-03-04T06:25:23;-0.70;99.90
35541;DHT22;21650;48.840;9.162;2023-03-04T06:27:48;-0.70;99.90
35541;DHT22;21650;48.840;9.162;2023-03-04T06:30:14;-0.70;99.90
35541;DHT22;21650;48.840;9.162;2023-03-04T06:32:40;-0.70;99.90
35541;DHT22;21650;48.840;9.162;2023-03-04T06:35:12;-0.70;99.90
35541;DHT22;21650;48.840;9.162;2023-03-04T06:37:38;-0.70;99.90
35541;DHT22;21650;48.840;9.162;2023-03-04T06:40:04;-0.70;99.90
35541;DHT22;21650;48.840;9.162;2023-03-04T06:42:30;-0.80;99.90
35541;DHT22;21650;48.840;9.162;2023-03-04T06:44:55;-0.70;99.90
35541;DHT22;21650;48.840;9.162;2023-03-04T06:47:21;-0.70;99.90
35541;DHT22;21650;48.840;9.162;2023-03-04T06:49:47;-0.70;99.90
35541;DHT22;21650;48.840;9.162;2023-03-04T06:52:13;-0.70;99.90
35541;DHT22;21650;48.840;9.162;2023-03-04T06:54:39;-0.70;99.90
35541;DHT22;21650;48.840;9.162;2023-03-04T06:57:05;-0.60;99.90
35541;DHT22;21650;48.840;9.162;2023-03-04T06:59:31;-0.60;99.90
35541;DHT22;21650;48.840;9.162;2023-03-04T07:01:57;-0.60;99.90
35541;DHT22;21650;48.840;9.162;2023-03-04T07:04:22;-0.50;99.90
35541;DHT22;21650;48.840;9.162;2023-03-04T07:06:49;-0.50;99.90
35541;DHT22;21650;48.840;9.162;2023-03-04T07:09:15;-0.50;99.90
35541;DHT22;21650;48.840;9.162;2023-03-04T07:11:40;-0.50;99.90
35541;DHT22;21650;48.840;9.162;2023-03-04T07:14:06;-0.40;99.90
35541;DHT22;21650;48.840;9.162;2023-03-04T07:16:32;-0.30;99.90
35541;DHT22;21650;48.840;9.162;2023-03-04T07:18:58;-0.30;99.90
35541;DHT22;21650;48.840;9.162;2023-03-04T07:21:23;-0.20;99.90
35541;DHT22;21650;48.840;9.162;2023-03-04T07:23:49;-0.30;99.90
35541;DHT22;21650;48.840;9.162;2023-03-04T07:26:15;-0.10;99.90
35541;DHT22;21650;48.840;9.162;2023-03-04T07:28:42;0.00;99.90
35541;DHT22;21650;48.840;9.162;2023-03-04T07:31:20;0.10;99.90
35541;DHT22;21650;48.840;9.162;2023-03-04T07:33:46;0.20;99.90
35541;DHT22;21650;48.840;9.162;2023-03-04T07:36:12;0.20;99.90
35541;DHT22;21650;48.840;9.162;2023-03-04T07:38:42;0.20;99.90
35541;DHT22;21650;48.840;9.162;2023-03-04T07:41:08;0.10;99.90
35541;DHT22;21650;48.840;9.162;2023-03-04T07:43:34;0.20;99.90
35541;DHT22;21650;48.840;9.162;2023-03-04T07:46:00;0.40;99.90
35541;DHT22;21650;48.840;9.162;2023-03-04T07:48:27;0.50;99.90
35541;DHT22;21650;48.840;9.162;2023-03-04T07:51:13;0.40;99.90
35541;DHT22;21650;48.840;9.162;2023-03-04T07:53:41;0.30;99.90
35541;DHT22;21650;48.840;9.162;2023-03-04T07:56:09;0.40;99.90
35541;DHT22;21650;48.840;9.162;2023-03-04T07:58:36;0.40;99.90
35541;DHT22;21650;48.840;9.162;2023-03-04T08:01:14;0.40;99.90
35541;DHT22;21650;48.840;9.162;2023-03-04T08:03:40;0.40;99.90
35541;DHT22;21650;48.840;9.162;2023-03-04T08:06:08;0.30;99.90
35541;DHT22;21650;48.840;9.162;2023-03-04T08:08:34;0.30;99.90
35541;DHT22;21650;48.840;9.162;2023-03-04T08:11:04;0.40;99.90
35541;DHT22;21650;48.840;9.162;2023-03-04T08:13:30;0.40;99.90
35541;DHT22;21650;48.840;9.162;2023-03-04T08:15:56;0.50;99.90
35541;DHT22;21650;48.840;9.162;2023-03-04T08:18:22;0.60;99.90
35541;DHT22;21650;48.840;9.162;2023-03-04T08:20:47;0.60;99.90
35541;DHT22;21650;48.840;9.162;2023-03-04T08:23:13;0.40;99.90
35541;DHT22;21650;48.840;9.162;2023-03-04T08:25:39;0.50;99.90
35541;DHT22;21650;48.840;9.162;2023-03-04T08:28:06;0.50;99.90
35541;DHT22;21650;48.840;9.162;2023-03-04T08:30:31;0.70;99.90
35541;DHT22;21650;48.840;9.162;2023-03-04T08:32:57;0.70;99.90
35541;DHT22;21650;48.840;9.162;2023-03-04T08:35:22;0.60;99.90
35541;DHT22;21650;48.840;9.162;2023-03-04T08:37:48;0.60;99.90
35541;DHT22;21650;48.840;9.162;2023-03-04T08:40:14;0.70;99.90
35541;DHT22;21650;48.840;9.162;2023-03-04T08:42:40;0.70;99.90
35541;DHT22;21650;48.840;9.162;2023-03-04T08:45:07;0.60;99.90
35541;DHT22;21650;48.840;9.162;2023-03-04T08:47:33;0.60;99.90
35541;DHT22;21650;48.840;9.162;2023-03-04T08:49:59;0.80;99.90
35541;DHT22;21650;48.840;9.162;2023-03-04T08:52:24;1.00;99.90
35541;DHT22;21650;48.840;9.162;2023-03-04T08:54:50;1.00;99.90
35541;DHT22;21650;48.840;9.162;2023-03-04T08:57:16;1.10;99.90
35541;DHT22;21650;48.840;9.162;2023-03-04T08:59:41;1.20;99.90
35541;DHT22;21650;48.840;9.162;2023-03-04T09:02:08;1.20;99.90
35541;DHT22;21650;48.840;9.162;2023-03-04T09:04:34;1.20;99.90
35541;DHT22;21650;48.840;9.162;2023-03-04T09:07:00;1.20;99.90
35541;DHT22;21650;48.840;9.162;2023-03-04T09:09:25;1.10;99.90
35541;DHT22;21650;48.840;9.162;2023-03-04T09:11:51;1.20;99.90
35541;DHT22;21650;48.840;9.162;2023-03-04T09:14:16;1.30;99.90
35541;DHT22;21650;48.840;9.162;2023-03-04T09:16:42;1.20;99.90
35541;DHT22;21650;48.840;9.162;2023-03-04T09:19:07;1.30;99.90
35541;DHT22;21650;48.840;9.162;2023-03-04T09:21:33;1.50;99.90
35541;DHT22;21650;48.840;9.162;2023-03-04T09:23:59;1.60;99.90
35541;DHT22;21650;48.840;9.162;2023-03-04T09:26:27;1.60;99.90
35541;DHT22;21650;48.840;9.162;2023-03-04T09:28:58;1.50;99.90
35541;DHT22;21650;48.840;9.162;2023-03-04T09:31:24;1.50;99.90
35541;DHT22;21650;48.840;9.162;2023-03-04T09:33:51;1.60;99.90
35541;DHT22;21650;48.840;9.162;2023-03-04T09:36:17;1.80;99.90
35541;DHT22;21650;48.840;9.162;2023-03-04T09:38:43;1.90;99.90
35541;DHT22;21650;48.840;9.162;2023-03-04T09:41:14;1.90;99.90
35541;DHT22;21650;48.840;9.162;2023-03-04T09:43:41;2.00;99.90
35541;DHT22;21650;48.840;9.162;2023-03-04T09:46:14;2.10;99.90
35541;DHT22;21650;48.840;9.162;2023-03-04T09:48:47;2.00;99.90
35541;DHT22;21650;48.840;9.162;2023-03-04T10:00:14;2.50;99.90
35541;DHT22;21650;48.840;9.162;2023-03-04T10:05:19;2.60;99.90
35541;DHT22;21650;48.840;9.162;2023-03-04T10:07:49;2.60;99.90
35541;DHT22;21650;48.840;9.162;2023-03-04T10:10:38;2.60;99.90
35541;DHT22;21650;48.840;9.162;2023-03-04T10:13:14;2.60;99.90
35541;DHT22;21650;48.840;9.162;2023-03-04T10:15:44;2.70;99.90
35541;DHT22;21650;48.840;9.162;2023-03-04T10:18:20;2.70;99.90
35541;DHT22;21650;48.840;9.162;2023-03-04T10:23:22;2.90;99.90
35541;DHT22;21650;48.840;9.162;2023-03-04T10:25:49;3.10;99.90
35541;DHT22;21650;48.840;9.162;2023-03-04T10:33:20;3.20;99.90
35541;DHT22;21650;48.840;9.162;2023-03-04T10:36:16;3.10;99.90
35541;DHT22;21650;48.840;9.162;2023-03-04T10:38:38;3.00;99.90
35541;DHT22;21650;48.840;9.162;2023-03-04T10:41:25;3.10;99.90
35541;DHT22;21650;48.840;9.162;2023-03-04T10:44:17;3.10;99.90
35541;DHT22;21650;48.840;9.162;2023-03-04T10:46:53;3.00;99.90
35541;DHT22;21650;48.840;9.162;2023-03-04T10:49:20;3.00;99.90
35541;DHT22;21650;48.840;9.162;2023-03-04T10:52:18;3.00;99.90
35541;DHT22;21650;48.840;9.162;2023-03-04T10:54:49;3.10;99.90
35541;DHT22;21650;48.840;9.162;2023-03-04T10:59:47;3.00;99.90
35541;DHT22;21650;48.840;9.162;2023-03-04T11:02:34;2.90;99.90
35541;DHT22;21650;48.840;9.162;2023-03-04T11:07:38;3.00;99.90
35541;DHT22;21650;48.840;9.162;2023-03-04T11:10:20;3.10;99.90
35541;DHT22;21650;48.840;9.162;2023-03-04T11:12:54;3.10;99.90
35541;DHT22;21650;48.840;9.162;2023-03-04T11:15:23;3.20;99.90
35541;DHT22;21650;48.840;9.162;2023-03-04T11:17:55;3.20;99.90
35541;DHT22;21650;48.840;9.162;2023-03-04T11:20:36;3.10;99.90
35541;DHT22;21650;48.840;9.162;2023-03-04T11:23:16;3.20;99.90
35541;DHT22;21650;48.840;9.162;2023-03-04T11:25:47;3.00;99.90
35541;DHT22;21650;48.840;9.162;2023-03-04T11:28:22;2.80;99.90
35541;DHT22;21650;48.840;9.162;2023-03-04T11:30:55;2.90;99.90
35541;DHT22;21650;48.840;9.162;2023-03-04T11:38:38;3.00;99.90
35541;DHT22;21650;48.840;9.162;2023-03-04T11:41:11;2.80;99.90
35541;DHT22;21650;48.840;9.162;2023-03-04T11:43:41;2.90;99.90
35541;DHT22;21650;48.840;9.162;2023-03-04T11:48:51;2.90;99.90
35541;DHT22;21650;48.840;9.162;2023-03-04T11:51:38;3.00;99.90
35541;DHT22;21650;48.840;9.162;2023-03-04T12:02:43;3.00;99.90
35541;DHT22;21650;48.840;9.162;2023-03-04T12:05:26;3.00;99.90
35541;DHT22;21650;48.840;9.162;2023-03-04T12:08:29;3.00;99.90
35541;DHT22;21650;48.840;9.162;2023-03-04T12:11:42;3.10;99.90
35541;DHT22;21650;48.840;9.162;2023-03-04T12:19:30;2.90;99.90
35541;DHT22;21650;48.840;9.162;2023-03-04T12:22:22;2.90;99.90
35541;DHT22;21650;48.840;9.162;2023-03-04T12:27:42;3.00;99.90
35541;DHT22;21650;48.840;9.162;2023-03-04T12:33:13;3.00;99.90
35541;DHT22;21650;48.840;9.162;2023-03-04T12:43:46;2.80;99.90
35541;DHT22;21650;48.840;9.162;2023-03-04T12:59:01;2.80;99.90
35541;DHT22;21650;48.840;9.162;2023-03-04T13:01:38;2.80;99.90
35541;DHT22;21650;48.840;9.162;2023-03-04T13:06:59;2.80;99.90
35541;DHT22;21650;48.840;9.162;2023-03-04T13:09:37;2.90;99.90
35541;DHT22;21650;48.840;9.162;2023-03-04T13:12:17;2.80;99.90
35541;DHT22;21650;48.840;9.162;2023-03-04T13:25:41;2.90;99.90
35541;DHT22;21650;48.840;9.162;2023-03-04T13:44:00;3.10;99.90
35541;DHT22;21650;48.840;9.162;2023-03-04T13:46:27;2.90;99.90
35541;DHT22;21650;48.840;9.162;2023-03-04T13:51:41;3.00;99.90
35541;DHT22;21650;48.840;9.162;2023-03-04T13:57:09;3.00;99.90
35541;DHT22;21650;48.840;9.162;2023-03-04T13:59:44;3.10;99.90
35541;DHT22;21650;48.840;9.162;2023-03-04T14:05:00;3.10;99.90
35541;DHT22;21650;48.840;9.162;2023-03-04T14:07:34;3.00;99.90
35541;DHT22;21650;48.840;9.162;2023-03-04T14:10:04;3.10;99.90
35541;DHT22;21650;48.840;9.162;2023-03-04T14:12:35;2.90;99.90
35541;DHT22;21650;48.840;9.162;2023-03-04T14:15:05;2.90;99.90
35541;DHT22;21650;48.840;9.162;2023-03-04T14:17:35;2.90;99.90
35541;DHT22;21650;48.840;9.162;2023-03-04T14:20:02;3.00;99.90
35541;DHT22;21650;48.840;9.162;2023-03-04T14:22:37;3.00;99.90
35541;DHT22;21650;48.840;9.162;2023-03-04T14:25:21;3.00;99.90
35541;DHT22;21650;48.840;9.162;2023-03-04T14:27:48;3.00;99.90
35541;DHT22;21650;48.840;9.162;2023-03-04T14:30:25;3.10;99.90
35541;DHT22;21650;48.840;9.162;2023-03-04T14:32:56;3.10;99.90
35541;DHT22;21650;48.840;9.162;2023-03-04T14:35:28;3.10;99.90
35541;DHT22;21650;48.840;9.162;2023-03-04T14:40:27;3.00;99.90
35541;DHT22;21650;48.840;9.162;2023-03-04T14:43:00;2.90;99.90
35541;DHT22;21650;48.840;9.162;2023-03-04T14:45:28;2.90;99.90
35541;DHT22;21650;48.840;9.162;2023-03-04T14:47:57;2.90;99.90
35541;DHT22;21650;48.840;9.162;2023-03-04T14:50:24;2.90;99.90
35541;DHT22;21650;48.840;9.162;2023-03-04T14:55:31;2.90;99.90
35541;DHT22;21650;48.840;9.162;2023-03-04T14:58:19;2.90;99.90
35541;DHT22;21650;48.840;9.162;2023-03-04T15:00:45;2.90;99.90
35541;DHT22;21650;48.840;9.162;2023-03-04T15:03:24;2.90;99.90
35541;DHT22;21650;48.840;9.162;2023-03-04T15:05:50;2.90;99.90
35541;DHT22;21650;48.840;9.162;2023-03-04T15:08:19;2.90;99.90
35541;DHT22;21650;48.840;9.162;2023-03-04T15:10:54;2.90;99.90
35541;DHT22;21650;48.840;9.162;2023-03-04T15:13:40;2.90;99.90
35541;DHT22;21650;48.840;9.162;2023-03-04T15:16:07;2.90;99.90
35541;DHT22;21650;48.840;9.162;2023-03-04T15:18:33;2.90;99.90
35541;DHT22;21650;48.840;9.162;2023-03-04T15:23:45;3.00;99.90
35541;DHT22;21650;48.840;9.162;2023-03-04T15:26:11;3.00;99.90
35541;DHT22;21650;48.840;9.162;2023-03-04T15:28:38;3.00;99.90
35541;DHT22;21650;48.840;9.162;2023-03-04T15:31:13;3.00;99.90
35541;DHT22;21650;48.840;9.162;2023-03-04T15:33:40;3.00;99.90
35541;DHT22;21650;48.840;9.162;2023-03-04T15:36:06;3.00;99.90
35541;DHT22;21650;48.840;9.162;2023-03-04T15:38:34;3.00;99.90
35541;DHT22;21650;48.840;9.162;2023-03-04T15:41:00;3.00;99.90
35541;DHT22;21650;48.840;9.162;2023-03-04T15:43:26;3.00;99.90
35541;DHT22;21650;48.840;9.162;2023-03-04T15:45:52;3.00;99.90
35541;DHT22;21650;48.840;9.162;2023-03-04T15:48:18;3.00;99.90
35541;DHT22;21650;48.840;9.162;2023-03-04T15:51:01;3.00;99.90
35541;DHT22;21650;48.840;9.162;2023-03-04T15:55:58;3.00;99.90
35541;DHT22;21650;48.840;9.162;2023-03-04T15:58:25;3.00;99.90
35541;DHT22;21650;48.840;9.162;2023-03-04T16:00:51;3.00;99.90
35541;DHT22;21650;48.840;9.162;2023-03-04T16:03:19;3.00;99.90
35541;DHT22;21650;48.840;9.162;2023-03-04T16:05:49;3.00;99.90
35541;DHT22;21650;48.840;9.162;2023-03-04T16:08:18;2.90;99.90
35541;DHT22;21650;48.840;9.162;2023-03-04T16:10:44;2.90;99.90
35541;DHT22;21650;48.840;9.162;2023-03-04T16:13:13;2.90;99.90
35541;DHT22;21650;48.840;9.162;2023-03-04T16:15:39;3.00;99.90
35541;DHT22;21650;48.840;9.162;2023-03-04T16:18:05;3.00;99.90
35541;DHT22;21650;48.840;9.162;2023-03-04T16:20:33;3.00;99.90
35541;DHT22;21650;48.840;9.162;2023-03-04T16:22:59;3.10;99.90
35541;DHT22;21650;48.840;9.162;2023-03-04T16:25:26;3.10;99.90
35541;DHT22;21650;48.840;9.162;2023-03-04T16:27:53;3.10;99.90
35541;DHT22;21650;48.840;9.162;2023-03-04T16:30:23;3.10;99.90
35541;DHT22;21650;48.840;9.162;2023-03-04T16:32:48;3.00;99.90
35541;DHT22;21650;48.840;9.162;2023-03-04T16:35:15;3.00;99.90
35541;DHT22;21650;48.840;9.162;2023-03-04T16:37:41;3.00;99.90
35541;DHT22;21650;48.840;9.162;2023-03-04T16:40:15;2.90;99.90
35541;DHT22;21650;48.840;9.162;2023-03-04T16:42:42;2.90;99.90
35541;DHT22;21650;48.840;9.162;2023-03-04T16:45:27;3.00;99.90
35541;DHT22;21650;48.840;9.162;2023-03-04T16:47:56;3.00;99.90
35541;DHT22;21650;48.840;9.162;2023-03-04T16:50:24;3.00;99.90
35541;DHT22;21650;48.840;9.162;2023-03-04T16:52:52;3.00;99.90
35541;DHT22;21650;48.840;9.162;2023-03-04T16:55:24;3.00;99.90
35541;DHT22;21650;48.840;9.162;2023-03-04T16:57:50;3.00;99.90
35541;DHT22;21650;48.840;9.162;2023-03-04T17:00:18;3.00;99.90
35541;DHT22;21650;48.840;9.162;2023-03-04T17:02:45;2.90;99.90
35541;DHT22;21650;48.840;9.162;2023-03-04T17:05:18;2.90;99.90
35541;DHT22;21650;48.840;9.162;2023-03-04T17:07:44;3.00;99.90
35541;DHT22;21650;48.840;9.162;2023-03-04T17:10:11;3.00;99.90
35541;DHT22;21650;48.840;9.162;2023-03-04T17:12:37;3.00;99.90
35541;DHT22;21650;48.840;9.162;2023-03-04T17:15:04;2.90;99.90
35541;DHT22;21650;48.840;9.162;2023-03-04T17:17:30;2.90;99.90
35541;DHT22;21650;48.840;9.162;2023-03-04T17:19:56;2.90;99.90
35541;DHT22;21650;48.840;9.162;2023-03-04T17:22:22;2.90;99.90
35541;DHT22;21650;48.840;9.162;2023-03-04T17:24:48;2.90;99.90
35541;DHT22;21650;48.840;9.162;2023-03-04T17:27:14;2.90;99.90
35541;DHT22;21650;48.840;9.162;2023-03-04T17:29:40;2.90;99.90
35541;DHT22;21650;48.840;9.162;2023-03-04T17:32:05;3.00;99.90
35541;DHT22;21650;48.840;9.162;2023-03-04T17:34:31;3.00;99.90
35541;DHT22;21650;48.840;9.162;2023-03-04T17:36:57;2.90;99.90
35541;DHT22;21650;48.840;9.162;2023-03-04T17:39:23;3.00;99.90
35541;DHT22;21650;48.840;9.162;2023-03-04T17:41:50;3.00;99.90
35541;DHT22;21650;48.840;9.162;2023-03-04T17:44:15;3.00;99.90
35541;DHT22;21650;48.840;9.162;2023-03-04T17:46:41;3.00;99.90
35541;DHT22;21650;48.840;9.162;2023-03-04T17:49:06;3.00;99.90
35541;DHT22;21650;48.840;9.162;2023-03-04T17:51:37;3.00;99.90
35541;DHT22;21650;48.840;9.162;2023-03-04T17:54:04;3.00;99.90
35541;DHT22;21650;48.840;9.162;2023-03-04T17:56:31;3.00;99.90